Time;durP1;ratioP1;P1;durP2;ratioP2;P2;SDS_P1;SDS_P2;PMS_P1;PMS_P2;Temp;Humidity;BMP_temperature;BMP_pressure;BME280_temperature;BME280_humidity;BME280_pressure;Samples;Min_cycle;Max_cycle;Signal;HPM_P1;HPM_P2
2023/06/20 00:00:18;;;;;;;6.25;5.25;;;19.40;99.90;;;;;;5070350;28;20065;-48
2023/06/20 00:02:44;;;;;;;6.28;4.90;;;19.40;99.90;;;;;;5070768;28;20089;-48
2023/06/20 00:05:10;;;;;;;6.40;5.72;;;19.40;99.90;;;;;;5075865;28;20040;-51
2023/06/20 00:07:35;;;;;;;7.50;5.57;;;19.50;99.90;;;;;;5086626;28;20078;-46
2023/06/20 00:10:01;;;;;;;6.97;5.15;;;19.50;99.90;;;;;;5078936;28;20032;-47
2023/06/20 00:12:26;;;;;;;6.70;5.03;;;19.40;99.90;;;;;;5070314;28;20028;-48
2023/06/20 00:14:52;;;;;;;6.13;5.53;;;19.40;99.90;;;;;;5070135;28;20296;-47
2023/06/20 00:17:17;;;;;;;5.53;5.00;;;19.40;99.90;;;;;;5069614;28;20025;-47
2023/06/20 00:19:43;;;;;;;5.68;5.15;;;19.40;99.90;;;;;;5069687;28;20038;-47
2023/06/20 00:22:08;;;;;;;6.80;5.28;;;19.40;99.90;;;;;;5068384;28;20519;-50
2023/06/20 00:24:34;;;;;;;7.25;5.72;;;19.50;99.90;;;;;;5070509;28;20085;-47
2023/06/20 00:27:03;;;;;;;5.97;5.38;;;19.50;99.90;;;;;;5069085;28;20024;-49
2023/06/20 00:29:29;;;;;;;6.20;5.57;;;19.30;99.90;;;;;;5068922;28;20021;-51
2023/06/20 00:31:54;;;;;;;8.48;5.63;;;19.40;99.90;;;;;;5067943;28;20021;-51
2023/06/20 00:34:21;;;;;;;6.10;5.53;;;19.40;99.90;;;;;;5073152;28;20040;-50
2023/06/20 00:36:46;;;;;;;7.60;5.43;;;19.40;99.90;;;;;;5071850;28;20056;-47
2023/06/20 00:39:12;;;;;;;5.95;5.35;;;19.40;99.90;;;;;;5069042;28;20059;-46
2023/06/20 00:41:38;;;;;;;5.80;5.20;;;19.40;99.90;;;;;;5069008;28;20024;-48
2023/06/20 00:44:04;;;;;;;8.30;6.05;;;19.40;99.90;;;;;;5069080;28;20051;-48
2023/06/20 00:46:32;;;;;;;6.25;5.65;;;19.50;99.90;;;;;;5070462;28;20020;-48
2023/06/20 00:48:59;;;;;;;8.48;6.03;;;19.50;99.90;;;;;;5068975;28;20052;-47
2023/06/20 00:51:28;;;;;;;6.57;5.88;;;19.50;99.90;;;;;;5070361;28;20490;-48
2023/06/20 00:53:54;;;;;;;6.78;6.15;;;19.50;99.90;;;;;;5083143;28;20425;-47
2023/06/20 00:56:20;;;;;;;8.38;6.03;;;19.50;99.90;;;;;;5068741;28;20028;-47
2023/06/20 00:58:46;;;;;;;6.53;5.88;;;19.40;99.90;;;;;;5069531;28;20021;-48
2023/06/20 01:01:11;;;;;;;5.88;5.38;;;19.40;99.90;;;;;;5081789;28;20478;-47
2023/06/20 01:03:37;;;;;;;6.43;5.82;;;19.40;99.90;;;;;;5069681;28;20036;-46
2023/06/20 01:06:05;;;;;;;7.35;6.30;;;19.30;99.90;;;;;;5084448;28;20027;-47
2023/06/20 01:08:44;;;;;;;7.40;6.60;;;19.30;99.90;;;;;;5080978;28;20545;-47
2023/06/20 01:11:19;;;;;;;8.68;7.57;;;19.30;99.90;;;;;;5071897;28;20025;-47
2023/06/20 01:14:00;;;;;;;9.65;7.50;;;19.30;99.90;;;;;;5069413;28;20024;-46
2023/06/20 01:16:42;;;;;;;12.55;8.18;;;19.30;99.90;;;;;;5066611;28;20340;-46
2023/06/20 01:19:44;;;;;;;8.88;7.80;;;19.30;99.90;;;;;;5085458;28;20016;-46
2023/06/20 01:22:28;;;;;;;8.65;7.70;;;19.30;99.90;;;;;;5080241;28;20060;-49
2023/06/20 01:24:58;;;;;;;11.18;9.60;;;19.30;99.90;;;;;;5087807;28;20046;-47
2023/06/20 01:27:39;;;;;;;8.93;8.07;;;19.30;99.90;;;;;;5080090;28;20640;-51
2023/06/20 01:30:21;;;;;;;8.73;7.90;;;19.30;99.90;;;;;;5088867;28;20043;-50
2023/06/20 01:32:48;;;;;;;11.50;9.40;;;19.30;99.90;;;;;;5062546;28;20646;-47
2023/06/20 01:35:20;;;;;;;9.98;8.82;;;19.20;99.90;;;;;;5074220;28;20027;-47
2023/06/20 01:37:51;;;;;;;9.68;8.77;;;19.30;99.90;;;;;;5083329;28;20273;-49
2023/06/20 01:40:18;;;;;;;;;;;19.30;99.90;;;;;;5067925;28;20032;-49
2023/06/20 01:42:46;;;;;;;12.55;9.32;;;19.30;99.90;;;;;;5067522;28;19912;-49
2023/06/20 01:45:13;;;;;;;9.82;8.80;;;19.20;99.90;;;;;;5068353;28;20038;-49
2023/06/20 01:47:44;;;;;;;11.05;9.88;;;19.20;99.90;;;;;;5066764;28;20336;-49
2023/06/20 01:50:13;;;;;;;11.07;9.00;;;19.10;99.90;;;;;;5076753;28;20024;-51
2023/06/20 01:52:40;;;;;;;11.75;9.85;;;19.10;99.90;;;;;;5069108;28;20100;-50
2023/06/20 01:55:10;;;;;;;11.48;9.73;;;19.10;99.90;;;;;;5077159;28;20035;-48
2023/06/20 01:57:36;;;;;;;10.27;9.23;;;19.10;99.90;;;;;;5059023;28;20024;-49
2023/06/20 02:00:08;;;;;;;10.70;9.60;;;19.10;99.90;;;;;;5077030;28;20099;-48
2023/06/20 02:02:40;;;;;;;12.57;9.82;;;19.00;99.90;;;;;;5059115;28;20255;-47
2023/06/20 02:05:10;;;;;;;13.23;10.15;;;19.00;99.90;;;;;;5083083;28;20036;-49
2023/06/20 02:07:37;;;;;;;;;;;19.00;99.90;;;;;;5083439;28;20097;-50
2023/06/20 02:10:04;;;;;;;12.55;9.55;;;18.90;99.90;;;;;;5069231;28;19908;-48
2023/06/20 02:12:32;;;;;;;10.18;9.07;;;19.00;99.90;;;;;;5068154;28;20462;-47
2023/06/20 02:15:00;;;;;;;11.57;9.60;;;18.90;99.90;;;;;;5068389;28;20058;-51
2023/06/20 02:17:27;;;;;;;12.13;9.60;;;18.90;99.90;;;;;;5077341;28;20047;-50
2023/06/20 02:19:53;;;;;;;12.32;9.48;;;18.90;99.90;;;;;;5068381;28;20103;-49
2023/06/20 02:22:23;;;;;;;11.07;9.20;;;18.90;99.90;;;;;;5067601;28;20466;-51
2023/06/20 02:24:50;;;;;;;11.40;10.00;;;18.80;99.90;;;;;;5068177;28;20060;-48
2023/06/20 02:27:19;;;;;;;10.20;8.88;;;18.80;99.90;;;;;;5067327;28;20086;-48
2023/06/20 02:29:45;;;;;;;12.15;9.35;;;18.80;99.90;;;;;;5070687;28;20428;-49
2023/06/20 02:32:16;;;;;;;11.85;9.98;;;18.70;99.90;;;;;;5071697;28;20119;-49
2023/06/20 02:34:46;;;;;;;12.27;9.50;;;18.70;99.90;;;;;;5076760;28;20366;-51
2023/06/20 02:37:12;;;;;;;9.50;8.52;;;18.60;99.90;;;;;;5091060;28;20032;-48
2023/06/20 02:39:38;;;;;;;11.73;9.60;;;18.60;99.90;;;;;;5072228;28;20032;-51
2023/06/20 02:42:04;;;;;;;11.75;10.55;;;18.60;99.90;;;;;;5072431;28;20021;-51
2023/06/20 02:44:30;;;;;;;17.95;10.70;;;18.60;99.90;;;;;;5080338;28;20035;-49
2023/06/20 02:47:08;;;;;;;11.70;10.50;;;18.60;99.90;;;;;;5071418;28;20028;-51
2023/06/20 02:49:45;;;;;;;11.02;9.93;;;18.50;99.90;;;;;;5071033;28;20102;-50
2023/06/20 02:52:25;;;;;;;12.25;10.40;;;18.50;99.90;;;;;;5071069;28;20414;-51
2023/06/20 02:55:13;;;;;;;12.20;10.98;;;18.50;99.90;;;;;;5071869;28;20323;-50
2023/06/20 02:57:52;;;;;;;11.48;9.93;;;18.50;99.90;;;;;;5071974;28;20016;-47
2023/06/20 03:00:19;;;;;;;12.48;11.18;;;18.50;99.90;;;;;;5071734;28;20019;-50
2023/06/20 03:03:07;;;;;;;13.18;11.77;;;18.50;99.90;;;;;;5071689;28;20509;-48
2023/06/20 03:05:38;;;;;;;12.38;11.05;;;18.50;99.90;;;;;;5076130;28;20020;-48
2023/06/20 03:08:04;;;;;;;11.38;10.20;;;18.60;99.90;;;;;;5083862;28;20085;-49
2023/06/20 03:10:34;;;;;;;12.80;11.48;;;18.60;99.90;;;;;;5071322;28;20505;-51
2023/06/20 03:13:01;;;;;;;14.48;11.90;;;18.60;99.90;;;;;;5070153;28;20024;-50
2023/06/20 03:15:27;;;;;;;13.52;11.80;;;18.60;99.90;;;;;;5070948;28;20025;-49
2023/06/20 03:17:52;;;;;;;17.27;12.80;;;18.60;99.90;;;;;;5069550;28;20013;-47
2023/06/20 03:20:18;;;;;;;18.02;12.68;;;18.70;99.90;;;;;;5078962;28;20032;-47
2023/06/20 03:22:43;;;;;;;14.45;11.60;;;18.70;99.90;;;;;;5069030;28;20036;-52
2023/06/20 03:25:09;;;;;;;13.77;12.25;;;18.70;99.90;;;;;;5070179;28;20104;-50
2023/06/20 03:27:35;;;;;;;16.58;12.50;;;18.80;99.90;;;;;;5078087;28;20033;-50
2023/06/20 03:30:06;;;;;;;17.40;14.02;;;18.80;99.90;;;;;;5070406;28;20021;-49
2023/06/20 03:32:32;;;;;;;15.80;14.05;;;18.80;99.90;;;;;;5072034;28;20020;-49
2023/06/20 03:34:58;;;;;;;17.58;14.57;;;18.90;99.90;;;;;;5081935;28;20016;-51
2023/06/20 03:37:23;;;;;;;13.77;12.13;;;18.90;99.90;;;;;;5089148;28;20062;-49
2023/06/20 03:39:49;;;;;;;16.67;14.13;;;19.00;99.90;;;;;;5075917;28;20356;-47
2023/06/20 03:42:14;;;;;;;17.67;14.82;;;19.00;99.90;;;;;;5071226;28;20332;-50
2023/06/20 03:44:40;;;;;;;17.08;15.18;;;19.00;99.90;;;;;;5077870;28;20382;-51
2023/06/20 03:47:06;;;;;;;19.00;14.18;;;19.00;99.90;;;;;;5068731;28;20467;-48
2023/06/20 03:49:33;;;;;;;15.93;14.18;;;19.10;99.90;;;;;;5069607;28;20028;-50
2023/06/20 03:51:58;;;;;;;16.63;14.20;;;19.10;99.90;;;;;;5069448;28;20103;-50
2023/06/20 03:54:24;;;;;;;15.85;13.45;;;19.10;99.90;;;;;;5068403;28;20107;-50
2023/06/20 03:56:49;;;;;;;16.25;14.30;;;19.10;99.90;;;;;;5069316;28;20023;-48
2023/06/20 03:59:15;;;;;;;14.40;12.90;;;19.20;99.90;;;;;;5069653;28;20031;-50
2023/06/20 04:01:44;;;;;;;15.80;12.80;;;19.20;99.90;;;;;;5069048;28;20035;-50
2023/06/20 04:04:14;;;;;;;16.15;14.15;;;19.20;99.90;;;;;;5070421;28;20016;-50
2023/06/20 04:06:40;;;;;;;18.42;14.68;;;19.20;99.90;;;;;;5068748;28;20028;-50
2023/06/20 04:09:06;;;;;;;15.80;14.07;;;19.20;99.90;;;;;;5069190;28;20029;-50
2023/06/20 04:11:35;;;;;;;19.10;15.38;;;19.20;99.90;;;;;;5077244;28;20033;-49
2023/06/20 04:14:01;;;;;;;16.83;13.30;;;19.20;99.90;;;;;;5067843;28;20078;-49
2023/06/20 04:16:27;;;;;;;17.92;14.00;;;19.20;99.90;;;;;;5067077;28;20032;-50
2023/06/20 04:18:52;;;;;;;16.73;14.38;;;19.30;99.90;;;;;;5076640;28;20024;-50
2023/06/20 04:21:18;;;;;;;15.68;13.32;;;19.40;99.90;;;;;;5034463;28;1254904;-50
2023/06/20 04:23:45;;;;;;;17.08;13.68;;;19.40;99.90;;;;;;5077180;28;20048;-48
2023/06/20 04:26:11;;;;;;;15.52;13.38;;;19.50;99.90;;;;;;5078006;28;20120;-48
2023/06/20 04:28:36;;;;;;;19.02;13.48;;;19.60;99.90;;;;;;5078224;28;20119;-47
2023/06/20 04:31:02;;;;;;;16.73;13.68;;;19.70;99.90;;;;;;5086155;28;20031;-47
2023/06/20 04:33:27;;;;;;;17.83;13.25;;;19.80;99.90;;;;;;5070597;28;20017;-51
2023/06/20 04:35:57;;;;;;;18.77;13.65;;;19.90;99.90;;;;;;5074725;28;20021;-50
2023/06/20 04:38:22;;;;;;;17.90;14.57;;;20.00;99.90;;;;;;5087617;28;20043;-47
2023/06/20 04:40:48;;;;;;;17.60;14.52;;;20.00;99.90;;;;;;5073877;28;20024;-47
2023/06/20 04:43:13;;;;;;;16.50;13.70;;;20.10;99.90;;;;;;5071931;28;20466;-47
2023/06/20 04:45:39;;;;;;;14.55;13.05;;;20.10;99.90;;;;;;5072076;28;20032;-48
2023/06/20 04:48:05;;;;;;;16.08;13.93;;;20.20;99.90;;;;;;5069806;28;20078;-50
2023/06/20 04:50:31;;;;;;;16.13;13.32;;;20.30;99.90;;;;;;5072453;28;20016;-50
2023/06/20 04:52:57;;;;;;;15.20;13.50;;;20.30;99.90;;;;;;5072510;28;20107;-48
2023/06/20 04:55:23;;;;;;;15.85;13.07;;;20.40;99.90;;;;;;5068892;28;20314;-48
2023/06/20 04:57:48;;;;;;;18.65;13.27;;;20.40;99.90;;;;;;5068822;28;20033;-47
2023/06/20 05:00:15;;;;;;;22.67;14.63;;;20.50;99.90;;;;;;5068303;28;20025;-48
2023/06/20 05:02:44;;;;;;;13.13;11.73;;;20.50;99.90;;;;;;5076579;28;20036;-48
2023/06/20 05:05:10;;;;;;;16.92;14.07;;;20.60;99.90;;;;;;5068776;28;20555;-49
2023/06/20 05:07:36;;;;;;;17.30;14.02;;;20.70;99.90;;;;;;5088979;28;20062;-47
2023/06/20 05:10:02;;;;;;;16.58;13.88;;;20.80;99.90;;;;;;5073443;28;20024;-50
2023/06/20 05:12:28;;;;;;;16.10;13.23;;;20.80;99.90;;;;;;5077429;28;20435;-50
2023/06/20 05:14:53;;;;;;;12.73;11.30;;;20.90;99.90;;;;;;5069093;28;20024;-51
2023/06/20 05:17:19;;;;;;;17.83;14.30;;;21.00;99.90;;;;;;5076667;28;20193;-49
2023/06/20 05:19:44;;;;;;;15.45;12.98;;;21.20;99.90;;;;;;5068809;28;20445;-49
2023/06/20 05:22:10;;;;;;;14.93;11.85;;;21.30;99.90;;;;;;5067274;28;20620;-50
2023/06/20 05:24:35;;;;;;;13.95;11.95;;;21.30;99.90;;;;;;5070192;28;20042;-49
2023/06/20 05:27:01;;;;;;;17.83;12.00;;;21.40;99.90;;;;;;5076600;28;20059;-50
2023/06/20 05:29:27;;;;;;;15.63;13.52;;;21.40;99.90;;;;;;5076142;28;20028;-51
2023/06/20 05:31:56;;;;;;;16.13;12.77;;;21.40;99.90;;;;;;5073289;28;20572;-51
2023/06/20 05:34:22;;;;;;;19.38;13.57;;;21.40;99.90;;;;;;5068579;28;20032;-51
2023/06/20 05:36:48;;;;;;;13.52;12.10;;;21.40;99.90;;;;;;5073862;28;20028;-50
2023/06/20 05:39:14;;;;;;;15.65;10.32;;;21.40;99.90;;;;;;5083996;28;20539;-49
2023/06/20 05:41:42;;;;;;;12.77;11.20;;;21.40;99.90;;;;;;5084868;28;20020;-49
2023/06/20 05:44:07;;;;;;;13.18;11.80;;;21.40;99.90;;;;;;5083521;28;20077;-49
2023/06/20 05:46:33;;;;;;;15.23;12.20;;;21.50;99.90;;;;;;5084215;28;20111;-48
2023/06/20 05:49:03;;;;;;;12.10;10.90;;;21.40;99.90;;;;;;5072818;28;20039;-51
2023/06/20 05:51:29;;;;;;;;;;;21.30;99.90;;;;;;5084082;28;20347;-51
2023/06/20 05:53:57;;;;;;;17.17;13.80;;;21.30;99.90;;;;;;5073558;28;19904;-50
2023/06/20 05:56:23;;;;;;;16.05;11.68;;;21.30;99.90;;;;;;5074330;28;20027;-49
2023/06/20 05:58:49;;;;;;;13.95;11.73;;;21.30;99.90;;;;;;5066176;28;20550;-51
2023/06/20 06:01:14;;;;;;;14.95;12.00;;;21.20;99.90;;;;;;5083553;28;20032;-49
2023/06/20 06:03:41;;;;;;;15.50;11.20;;;21.20;99.90;;;;;;5072537;28;20393;-53
2023/06/20 06:06:09;;;;;;;14.57;11.43;;;21.20;99.90;;;;;;5074689;28;20424;-50
2023/06/20 06:08:36;;;;;;;13.63;12.05;;;21.20;99.90;;;;;;5072731;28;20115;-51
2023/06/20 06:11:02;;;;;;;15.10;11.73;;;21.20;99.90;;;;;;5084421;28;20032;-51
2023/06/20 06:13:28;;;;;;;13.23;11.75;;;21.20;99.90;;;;;;5079472;28;20107;-50
2023/06/20 06:15:54;;;;;;;12.77;11.50;;;21.20;99.90;;;;;;5078457;28;20020;-49
2023/06/20 06:18:20;;;;;;;13.35;11.30;;;21.20;99.90;;;;;;5086963;28;20022;-51
2023/06/20 06:20:45;;;;;;;12.85;11.00;;;21.20;99.90;;;;;;5087126;28;20024;-51
2023/06/20 06:23:11;;;;;;;17.05;12.52;;;21.20;99.90;;;;;;5081252;28;20586;-50
2023/06/20 06:25:37;;;;;;;17.10;11.90;;;21.20;99.90;;;;;;5080082;28;20024;-51
2023/06/20 06:28:03;;;;;;;18.88;11.63;;;21.10;99.90;;;;;;5087052;28;20657;-51
2023/06/20 06:30:32;;;;;;;12.50;10.68;;;21.10;99.90;;;;;;5083018;28;20020;-51
2023/06/20 06:33:01;;;;;;;15.05;11.07;;;21.10;99.90;;;;;;5082832;28;20044;-51
2023/06/20 06:35:30;;;;;;;12.05;10.68;;;21.10;99.90;;;;;;5085039;28;20066;-53
2023/06/20 06:37:56;;;;;;;15.23;11.80;;;21.10;99.90;;;;;;5085304;28;20460;-50
2023/06/20 06:40:22;;;;;;;15.68;12.25;;;21.10;99.90;;;;;;5087319;28;20144;-51
2023/06/20 06:42:48;;;;;;;17.52;14.20;;;21.00;99.90;;;;;;5086963;28;20495;-51
2023/06/20 06:45:14;;;;;;;19.17;12.93;;;20.90;99.90;;;;;;5080674;28;20028;-51
2023/06/20 06:47:40;;;;;;;14.32;12.80;;;20.70;99.90;;;;;;5083944;28;20016;-50
2023/06/20 06:50:06;;;;;;;17.83;13.10;;;20.50;99.90;;;;;;5087341;28;20051;-50
2023/06/20 06:52:36;;;;;;;23.08;13.23;;;20.30;99.90;;;;;;5084968;28;20111;-49
2023/06/20 06:55:02;;;;;;;15.45;13.52;;;20.30;99.90;;;;;;5062069;28;20020;-50
2023/06/20 06:57:28;;;;;;;14.93;13.32;;;20.10;99.90;;;;;;5074315;28;20048;-49
2023/06/20 06:59:54;;;;;;;15.75;13.75;;;20.10;99.90;;;;;;5085008;28;20429;-50
2023/06/20 07:02:21;;;;;;;17.58;14.60;;;20.10;99.90;;;;;;5084167;28;20028;-50
2023/06/20 07:04:47;;;;;;;20.23;14.32;;;20.10;99.90;;;;;;5082288;28;20089;-49
2023/06/20 07:07:12;;;;;;;19.83;14.55;;;20.10;99.90;;;;;;5085532;28;20040;-51
2023/06/20 07:09:38;;;;;;;18.00;14.38;;;20.10;99.90;;;;;;5083919;28;20106;-50
2023/06/20 07:12:05;;;;;;;19.83;16.48;;;20.00;99.90;;;;;;5085982;28;20028;-51
2023/06/20 07:14:33;;;;;;;17.55;15.10;;;19.90;99.90;;;;;;5079589;28;20047;-55
2023/06/20 07:16:59;;;;;;;24.27;18.92;;;19.80;99.90;;;;;;5084484;28;20101;-55
2023/06/20 07:19:25;;;;;;;21.77;17.52;;;19.70;99.90;;;;;;5085078;28;20099;-52
2023/06/20 07:21:50;;;;;;;23.80;16.58;;;19.50;99.90;;;;;;5076712;28;20128;-50
2023/06/20 07:24:16;;;;;;;22.33;17.67;;;19.50;99.90;;;;;;5086306;28;20027;-51
2023/06/20 07:26:41;;;;;;;22.27;18.52;;;19.40;99.90;;;;;;5089108;28;20104;-51
2023/06/20 07:29:07;;;;;;;22.98;20.23;;;19.40;99.90;;;;;;5087781;28;20439;-51
2023/06/20 07:31:32;;;;;;;23.40;18.98;;;19.40;99.90;;;;;;5089748;28;20026;-53
2023/06/20 07:33:58;;;;;;;27.58;21.45;;;19.40;99.90;;;;;;5089852;28;20016;-56
2023/06/20 07:36:24;;;;;;;29.55;22.15;;;19.40;99.90;;;;;;5079355;28;20201;-56
2023/06/20 07:38:50;;;;;;;24.33;19.45;;;19.40;99.90;;;;;;5081133;28;20111;-55
2023/06/20 07:41:15;;;;;;;29.17;22.15;;;19.30;99.90;;;;;;5088539;28;20031;-53
2023/06/20 07:43:43;;;;;;;30.00;22.33;;;19.40;99.90;;;;;;5072939;28;20041;-54
2023/06/20 07:46:08;;;;;;;29.15;23.33;;;19.40;99.90;;;;;;5076703;28;20504;-54
2023/06/20 07:48:34;;;;;;;25.85;21.95;;;19.40;99.90;;;;;;5072107;28;20039;-53
2023/06/20 07:51:00;;;;;;;25.95;20.90;;;19.40;99.90;;;;;;5090297;28;20016;-53
2023/06/20 07:53:26;;;;;;;23.48;19.40;;;19.50;99.90;;;;;;5072082;28;20619;-54
2023/06/20 07:55:55;;;;;;;27.67;22.63;;;19.60;99.90;;;;;;5084198;28;20036;-53
2023/06/20 07:58:21;;;;;;;27.40;20.67;;;19.60;99.90;;;;;;5079230;28;20020;-52
2023/06/20 08:00:47;;;;;;;27.85;22.60;;;19.70;99.90;;;;;;5078000;28;20404;-53
2023/06/20 08:03:13;;;;;;;23.58;20.65;;;19.80;99.90;;;;;;5090306;28;20153;-52
2023/06/20 08:05:39;;;;;;;27.35;21.77;;;19.80;99.90;;;;;;5072021;28;20105;-53
2023/06/20 08:08:04;;;;;;;25.25;20.67;;;19.90;99.90;;;;;;5085817;28;20485;-52
2023/06/20 08:10:30;;;;;;;24.50;21.15;;;20.00;99.90;;;;;;5088084;28;20070;-54
2023/06/20 08:12:56;;;;;;;28.15;21.38;;;20.00;99.90;;;;;;5089222;28;20056;-53
2023/06/20 08:15:22;;;;;;;30.98;23.98;;;20.10;99.90;;;;;;5084414;28;20035;-55
2023/06/20 08:17:50;;;;;;;27.58;21.95;;;20.20;99.90;;;;;;5088695;28;20567;-51
2023/06/20 08:20:16;;;;;;;27.00;20.02;;;20.30;99.90;;;;;;5087177;28;20077;-52
2023/06/20 08:22:42;;;;;;;26.75;22.33;;;20.40;99.90;;;;;;5080823;28;20041;-53
2023/06/20 08:25:08;;;;;;;30.10;22.90;;;20.40;99.90;;;;;;5079584;28;20033;-52
2023/06/20 08:27:34;;;;;;;27.33;22.00;;;20.50;99.90;;;;;;5078714;28;20017;-52
2023/06/20 08:29:59;;;;;;;27.73;22.00;;;20.60;99.90;;;;;;5071779;28;20421;-53
2023/06/20 08:32:25;;;;;;;24.77;21.67;;;20.70;99.90;;;;;;5074828;28;20047;-52
2023/06/20 08:34:50;;;;;;;26.13;22.20;;;20.90;99.90;;;;;;5068745;28;20119;-52
2023/06/20 08:37:23;;;;;;;25.63;20.52;;;21.00;99.90;;;;;;5074458;28;20056;-54
2023/06/20 08:39:49;;;;;;;21.60;19.05;;;21.20;99.90;;;;;;5064353;28;20478;-52
2023/06/20 08:42:15;;;;;;;25.55;22.58;;;21.40;99.90;;;;;;5072224;28;20028;-53
2023/06/20 08:44:43;;;;;;;21.75;19.42;;;21.40;99.90;;;;;;5069729;28;20017;-52
2023/06/20 08:47:09;;;;;;;21.75;18.70;;;21.50;99.90;;;;;;5070936;28;20541;-53
2023/06/20 08:49:38;;;;;;;23.13;18.63;;;21.80;99.90;;;;;;5075057;28;20032;-52
2023/06/20 08:52:11;;;;;;;19.73;17.60;;;22.10;99.90;;;;;;5075260;28;20098;-52
2023/06/20 08:54:45;;;;;;;18.40;16.27;;;22.50;99.90;;;;;;5068068;28;20024;-52
2023/06/20 08:57:14;;;;;;;18.65;16.73;;;22.90;99.90;;;;;;5066700;28;20031;-53
2023/06/20 08:59:39;;;;;;;25.67;18.25;;;23.30;99.90;;;;;;5077311;28;20435;-52
2023/06/20 09:02:07;;;;;;;17.52;15.73;;;23.70;99.90;;;;;;5083144;28;20020;-53
2023/06/20 09:04:36;;;;;;;18.38;14.50;;;24.00;99.90;;;;;;5070774;28;20524;-53
2023/06/20 09:07:25;;;;;;;18.70;13.82;;;24.70;99.90;;;;;;5071834;28;20029;-54
2023/06/20 09:10:03;;;;;;;17.40;14.70;;;25.30;99.90;;;;;;5076668;28;20050;-54
2023/06/20 09:12:43;;;;;;;13.75;12.20;;;25.40;99.90;;;;;;5078654;28;20028;-53
2023/06/20 09:15:11;;;;;;;;;;;25.50;99.90;;;;;;5076957;28;20020;-52
2023/06/20 09:17:37;;;;;;;13.75;12.35;;;25.40;99.90;;;;;;5074897;28;20034;-53
2023/06/20 09:20:06;;;;;;;14.48;12.80;;;25.30;99.90;;;;;;5080122;28;20023;-52
2023/06/20 09:22:31;;;;;;;12.77;11.43;;;25.20;99.90;;;;;;5077172;28;20118;-51
2023/06/20 09:25:03;;;;;;;11.05;9.90;;;25.20;99.90;;;;;;5078169;28;20107;-53
2023/06/20 09:27:34;;;;;;;10.80;9.70;;;25.30;99.90;;;;;;5084755;28;20502;-54
2023/06/20 09:30:00;;;;;;;11.32;10.23;;;25.30;99.90;;;;;;5070163;28;20359;-52
2023/06/20 09:32:26;;;;;;;11.18;9.98;;;25.50;99.90;;;;;;5075026;28;20051;-52
2023/06/20 09:34:52;;;;;;;10.35;9.32;;;25.80;99.90;;;;;;5069530;28;20029;-53
2023/06/20 09:37:18;;;;;;;11.60;9.80;;;26.20;99.90;;;;;;5068851;28;20052;-52
2023/06/20 09:39:44;;;;;;;10.13;9.13;;;26.60;99.90;;;;;;5080115;28;20024;-52
2023/06/20 09:42:13;;;;;;;11.52;9.50;;;27.00;99.90;;;;;;5088457;28;20123;-53
2023/06/20 09:44:40;;;;;;;10.70;8.60;;;27.80;99.90;;;;;;5080581;28;20042;-53
2023/06/20 09:47:07;;;;;;;9.30;8.32;;;28.70;99.90;;;;;;5087546;28;20020;-52
2023/06/20 09:49:35;;;;;;;10.13;9.13;;;30.10;99.90;;;;;;5087547;28;20016;-53
2023/06/20 09:52:14;;;;;;;9.52;8.63;;;30.90;98.60;;;;;;5080945;28;20016;-54
2023/06/20 09:54:58;;;;;;;10.82;8.25;;;31.40;96.90;;;;;;5077126;28;20388;-54
2023/06/20 09:57:50;;;;;;;9.13;8.25;;;32.30;93.70;;;;;;5080312;28;20024;-53
2023/06/20 10:00:17;;;;;;;9.00;8.05;;;33.00;92.70;;;;;;5055636;28;20567;-53
2023/06/20 10:02:45;;;;;;;8.20;7.40;;;33.70;88.10;;;;;;5080052;28;20151;-57
2023/06/20 10:05:15;;;;;;;8.57;7.78;;;33.70;88.70;;;;;;5077721;28;20028;-56
2023/06/20 10:07:42;;;;;;;8.90;8.00;;;33.80;86.20;;;;;;5078710;28;20032;-57
2023/06/20 10:10:10;;;;;;;8.80;8.00;;;33.60;86.00;;;;;;5079448;28;20324;-57
2023/06/20 10:12:36;;;;;;;9.02;8.13;;;33.30;85.90;;;;;;5084675;28;20028;-57
2023/06/20 10:15:05;;;;;;;10.38;9.10;;;33.10;85.50;;;;;;5085778;28;20060;-57
2023/06/20 10:17:39;;;;;;;10.35;9.35;;;32.60;86.00;;;;;;5086366;28;20051;-57
2023/06/20 10:20:07;;;;;;;9.32;8.52;;;31.90;86.30;;;;;;5086081;28;20077;-57
2023/06/20 10:22:43;;;;;;;15.20;9.63;;;31.00;90.00;;;;;;5086116;28;20028;-57
2023/06/20 10:25:13;;;;;;;10.73;9.60;;;30.30;90.80;;;;;;5077918;28;20036;-57
2023/06/20 10:27:53;;;;;;;10.32;9.40;;;29.50;90.60;;;;;;5079426;28;20023;-56
2023/06/20 10:30:55;;;;;;;9.73;8.82;;;29.20;91.80;;;;;;5078633;28;20032;-56
2023/06/20 10:33:32;;;;;;;11.23;10.07;;;29.70;91.80;;;;;;5083979;28;20116;-57
2023/06/20 10:36:09;;;;;;;10.32;9.00;;;29.90;91.90;;;;;;5067447;28;20311;-56
2023/06/20 10:38:59;;;;;;;9.80;8.80;;;30.40;90.60;;;;;;5084435;28;20028;-56
2023/06/20 10:41:26;;;;;;;;;;;31.40;89.30;;;;;;5077858;28;20058;-57
2023/06/20 10:44:01;;;;;;;9.48;8.57;;;32.70;87.00;;;;;;5062370;28;19916;-57
2023/06/20 10:46:36;;;;;;;9.05;8.25;;;33.80;84.40;;;;;;5082839;28;20043;-57
2023/06/20 10:49:06;;;;;;;9.85;7.35;;;34.40;80.10;;;;;;5084181;28;20040;-57
2023/06/20 10:51:44;;;;;;;8.07;7.38;;;34.40;79.20;;;;;;5086980;28;20474;-56
2023/06/20 10:54:11;;;;;;;8.75;8.02;;;34.40;79.80;;;;;;5084133;28;21143;-54
2023/06/20 10:56:37;;;;;;;8.85;8.05;;;34.20;79.90;;;;;;5077922;28;20032;-53
2023/06/20 10:59:16;;;;;;;8.25;7.45;;;34.10;80.20;;;;;;5082012;28;20433;-58
2023/06/20 11:01:42;;;;;;;7.60;6.90;;;34.90;77.00;;;;;;5083470;28;20049;-53
2023/06/20 11:04:10;;;;;;;8.93;7.07;;;35.70;75.60;;;;;;5086102;28;20056;-54
2023/06/20 11:06:36;;;;;;;6.75;6.22;;;35.80;74.50;;;;;;5083902;28;20662;-54
2023/06/20 11:09:03;;;;;;;7.22;6.63;;;35.90;72.70;;;;;;5090531;28;20299;-54
2023/06/20 11:11:32;;;;;;;8.95;7.10;;;35.90;72.10;;;;;;5081107;28;20405;-53
2023/06/20 11:14:12;;;;;;;6.15;5.63;;;35.60;70.90;;;;;;5086433;28;20027;-54
2023/06/20 11:16:39;;;;;;;7.68;6.20;;;35.90;72.90;;;;;;5078415;28;20204;-54
2023/06/20 11:19:05;;;;;;;6.88;6.38;;;36.40;71.00;;;;;;5087134;28;20106;-54
2023/06/20 11:21:31;;;;;;;6.35;5.85;;;37.20;67.00;;;;;;5086421;28;20555;-54
2023/06/20 11:24:04;;;;;;;6.57;5.97;;;36.10;68.80;;;;;;5066748;28;20075;-54
2023/06/20 11:26:34;;;;;;;6.45;5.47;;;36.20;69.50;;;;;;5085024;28;20819;-53
2023/06/20 11:29:03;;;;;;;6.20;5.70;;;35.80;69.10;;;;;;5084919;28;20107;-54
2023/06/20 11:31:29;;;;;;;5.97;5.47;;;36.10;69.70;;;;;;5090571;28;20028;-54
2023/06/20 11:34:05;;;;;;;6.22;5.60;;;36.40;69.10;;;;;;5084622;28;20012;-54
2023/06/20 11:36:33;;;;;;;5.63;5.05;;;36.40;69.10;;;;;;5090199;28;20024;-54
2023/06/20 11:39:00;;;;;;;5.65;5.15;;;36.60;68.70;;;;;;5088399;28;20089;-54
2023/06/20 11:41:32;;;;;;;5.80;5.20;;;37.10;67.80;;;;;;5082043;28;20508;-54
2023/06/20 11:43:58;;;;;;;8.52;5.15;;;37.60;66.20;;;;;;5089915;28;20493;-54
2023/06/20 11:46:24;;;;;;;6.47;4.97;;;37.40;64.90;;;;;;5090294;28;20382;-54
2023/06/20 11:48:52;;;;;;;5.85;5.32;;;37.50;65.10;;;;;;5084775;28;20516;-53
2023/06/20 11:51:21;;;;;;;6.10;5.60;;;37.60;64.70;;;;;;5090015;28;20464;-53
2023/06/20 11:53:58;;;;;;;6.50;5.25;;;37.30;65.00;;;;;;5080490;28;20008;-54
2023/06/20 11:56:24;;;;;;;5.57;5.07;;;36.70;65.90;;;;;;5087706;28;20031;-53
2023/06/20 11:58:53;;;;;;;7.05;5.60;;;36.20;66.80;;;;;;5089342;28;20016;-53
2023/06/20 12:01:22;;;;;;;6.25;5.75;;;36.00;67.70;;;;;;5089203;28;20073;-53
2023/06/20 12:04:01;;;;;;;6.22;5.63;;;35.80;68.40;;;;;;5090132;28;20051;-55
2023/06/20 12:06:28;;;;;;;;;;;35.60;67.90;;;;;;5089153;28;20031;-52
2023/06/20 12:09:03;;;;;;;7.35;5.57;;;35.20;66.90;;;;;;5075211;28;20382;-51
2023/06/20 12:11:30;;;;;;;5.47;4.97;;;34.50;69.60;;;;;;5088434;28;20030;-52
2023/06/20 12:13:56;;;;;;;5.13;4.38;;;34.50;69.50;;;;;;5081057;28;20074;-52
2023/06/20 12:16:23;;;;;;;5.28;4.78;;;34.20;68.30;;;;;;5088857;28;20030;-52
2023/06/20 12:18:51;;;;;;;5.60;5.05;;;33.60;68.80;;;;;;5082668;28;20102;-52
2023/06/20 12:21:17;;;;;;;5.80;4.85;;;33.50;69.20;;;;;;5077824;28;20032;-55
2023/06/20 12:23:42;;;;;;;4.93;4.43;;;33.20;67.80;;;;;;5069703;28;20035;-56
2023/06/20 12:26:08;;;;;;;6.72;4.55;;;32.80;70.60;;;;;;5069609;28;20028;-55
2023/06/20 12:28:36;;;;;;;5.05;4.55;;;33.00;70.50;;;;;;5071348;28;20024;-55
2023/06/20 12:31:03;;;;;;;4.80;4.40;;;32.70;70.60;;;;;;5071218;28;20541;-55
2023/06/20 12:33:29;;;;;;;5.40;4.90;;;33.00;71.40;;;;;;5087335;28;20063;-56
2023/06/20 12:35:55;;;;;;;7.43;4.57;;;33.20;71.40;;;;;;5073156;28;20061;-56
2023/06/20 12:38:21;;;;;;;5.10;4.70;;;33.30;71.20;;;;;;5071876;28;20385;-57
2023/06/20 12:40:47;;;;;;;5.45;4.75;;;33.30;69.60;;;;;;5068861;28;20377;-56